LIPX/VRN METAR and TAF weather

Enter ICAO airport designator
Station Type Date Time Source
LIPX METAR 2022/06/28 09:20 UTC NOAA

LIPX 280920Z 15004KT 120V200 9999 SCT040 BKN060 29/18 Q1014


Station Type Date Time Source
LIPX Decoded METAR 2022/06/28 09:20 UTC NOAA

Verona / Villafranca, Italy (LIPX) 45-23N 010-52E 68M
Jun 28, 2022 - 05:20 AM EDT / 2022.06.28 0920 UTC
Wind: from the SSE (150 degrees) at 5 MPH (4 KT) (direction variable):0
Visibility: greater than 7 mile(s):0
Sky conditions: mostly cloudy
Temperature: 84 F (29 C)
Dew Point: 64 F (18 C)
Relative Humidity: 51%
Pressure (altimeter): 29.94 in. Hg (1014 hPa)
ob: LIPX 280920Z 15004KT 120V200 9999 SCT040 BKN060 29/18 Q1014
cycle: 9

Station Type Date Time Source
LIPX TAF 2022/06/28 06:24 UTC NOAA

TAF LIPX 280500Z 2806/2906 VRB05KT 9999 FEW040
BECMG 2810/2812 09012KT
TEMPO 2816/2824 4000 TSRA
BECMG 2819/2821 VRB05KT

Example: see airport list